DLH2LM EDDF-LIMC
Flight info
| Callsign | DLH2LM |
|---|---|
| Flight time | 0h 51m |
| Altitude | 31000 |
| Route | ANEKI2L/18 ANEKI Y163 HERBI/N0440F330 Y163 NATOR DCT DITON DCT BASGO Z424 RIXUV RIXUV3E |
| Aircraft | A319/M-SDE3FGHIRWY/LB1 |
Departure
| Time | 2026-05-07 14:24 |
|---|---|
| Airport | Frankfurt Main Airport (EDDF) |
Arrival
| Time | 2026-05-07 15:16 |
|---|---|
| Airport | Milan Malpensa International Airport (LIMC) |
| Time | Latitude | Longitude | Altitude | Speed | Heading |
|---|---|---|---|---|---|
| 2026-05-07 13:53 | 50.04737 | 8.56737 | 356 ft | 0 kts | 115° |
| 2026-05-07 14:13 | 50.04739 | 8.56727 | 356 ft | 4 kts | 111° |
| 2026-05-07 14:14 | 50.04746 | 8.56695 | 361 ft | 4 kts | 116° |
| 2026-05-07 14:14 | 50.04762 | 8.56669 | 364 ft | 4 kts | 175° |
| 2026-05-07 14:14 | 50.04785 | 8.56676 | 359 ft | 2 kts | 205° |
| 2026-05-07 14:14 | 50.04786 | 8.56677 | 359 ft | 0 kts | 205° |
| 2026-05-07 14:17 | 50.04779 | 8.56672 | 356 ft | 3 kts | 205° |
| 2026-05-07 14:17 | 50.04738 | 8.56623 | 361 ft | 11 kts | 231° |
| 2026-05-07 14:18 | 50.04680 | 8.56492 | 360 ft | 19 kts | 245° |
| 2026-05-07 14:18 | 50.04631 | 8.56284 | 356 ft | 21 kts | 250° |
| 2026-05-07 14:18 | 50.04579 | 8.56067 | 359 ft | 18 kts | 249° |
| 2026-05-07 14:18 | 50.04497 | 8.55943 | 361 ft | 18 kts | 196° |
| 2026-05-07 14:19 | 50.04376 | 8.55912 | 356 ft | 18 kts | 167° |
| 2026-05-07 14:19 | 50.04270 | 8.55964 | 356 ft | 14 kts | 180° |
| 2026-05-07 14:19 | 50.04216 | 8.55843 | 355 ft | 15 kts | 250° |
| 2026-05-07 14:19 | 50.04177 | 8.55679 | 358 ft | 17 kts | 249° |
| 2026-05-07 14:20 | 50.04134 | 8.55499 | 356 ft | 20 kts | 249° |
| 2026-05-07 14:20 | 50.04080 | 8.55274 | 361 ft | 22 kts | 249° |
| 2026-05-07 14:20 | 50.04025 | 8.55048 | 353 ft | 23 kts | 249° |
| 2026-05-07 14:20 | 50.03966 | 8.54819 | 358 ft | 24 kts | 248° |
| 2026-05-07 14:21 | 50.03911 | 8.54569 | 349 ft | 25 kts | 249° |
| 2026-05-07 14:21 | 50.03838 | 8.54315 | 347 ft | 26 kts | 237° |
| 2026-05-07 14:21 | 50.03759 | 8.54059 | 350 ft | 27 kts | 251° |
| 2026-05-07 14:21 | 50.03695 | 8.53786 | 343 ft | 27 kts | 249° |
| 2026-05-07 14:22 | 50.03627 | 8.53510 | 340 ft | 28 kts | 248° |
| 2026-05-07 14:22 | 50.03558 | 8.53228 | 338 ft | 28 kts | 250° |
| 2026-05-07 14:22 | 50.03501 | 8.52982 | 335 ft | 24 kts | 250° |
| 2026-05-07 14:22 | 50.03440 | 8.52751 | 335 ft | 21 kts | 249° |
| 2026-05-07 14:23 | 50.03380 | 8.52598 | 334 ft | 13 kts | 207° |
| 2026-05-07 14:23 | 50.03335 | 8.52593 | 336 ft | 0 kts | 179° |
| 2026-05-07 14:23 | 50.03321 | 8.52593 | 334 ft | 12 kts | 179° |
| 2026-05-07 14:24 | 50.02937 | 8.52596 | 336 ft | 94 kts | 180° |
| 2026-05-07 14:24 | 50.02065 | 8.52603 | 335 ft | 154 kts | 180° |
| 2026-05-07 14:24 | 50.00984 | 8.52613 | 993 ft | 151 kts | 180° |
| 2026-05-07 14:24 | 49.99927 | 8.52667 | 1676 ft | 156 kts | 178° |
| 2026-05-07 14:25 | 49.98782 | 8.52741 | 2160 ft | 174 kts | 178° |
| 2026-05-07 14:25 | 49.97545 | 8.52828 | 2815 ft | 182 kts | 178° |
| 2026-05-07 14:25 | 49.96238 | 8.52919 | 3429 ft | 192 kts | 179° |
| 2026-05-07 14:25 | 49.94904 | 8.53009 | 4101 ft | 200 kts | 179° |
| 2026-05-07 14:26 | 49.93439 | 8.53108 | 4517 ft | 222 kts | 179° |
| 2026-05-07 14:26 | 49.91835 | 8.53218 | 5069 ft | 238 kts | 179° |
| 2026-05-07 14:26 | 49.90170 | 8.53333 | 6018 ft | 241 kts | 179° |
| 2026-05-07 14:26 | 49.88481 | 8.53449 | 6954 ft | 244 kts | 179° |
| 2026-05-07 14:27 | 49.86772 | 8.53565 | 7866 ft | 248 kts | 179° |
| 2026-05-07 14:27 | 49.85038 | 8.53682 | 8795 ft | 251 kts | 179° |
| 2026-05-07 14:27 | 49.83280 | 8.53799 | 9746 ft | 255 kts | 179° |
| 2026-05-07 14:27 | 49.81498 | 8.53920 | 10614 ft | 258 kts | 179° |
| 2026-05-07 14:28 | 49.79687 | 8.54042 | 11454 ft | 262 kts | 179° |
| 2026-05-07 14:28 | 49.77871 | 8.54110 | 12275 ft | 267 kts | 185° |
| 2026-05-07 14:28 | 49.75948 | 8.53876 | 12704 ft | 289 kts | 186° |
| 2026-05-07 14:28 | 49.73855 | 8.53595 | 12993 ft | 315 kts | 186° |
| 2026-05-07 14:29 | 49.71568 | 8.53281 | 13051 ft | 341 kts | 186° |
| 2026-05-07 14:29 | 49.69164 | 8.52949 | 13290 ft | 353 kts | 186° |
| 2026-05-07 14:29 | 49.66704 | 8.52616 | 14127 ft | 356 kts | 186° |
| 2026-05-07 14:29 | 49.64227 | 8.52288 | 14884 ft | 359 kts | 186° |
| 2026-05-07 14:30 | 49.61730 | 8.51960 | 15654 ft | 361 kts | 186° |
| 2026-05-07 14:30 | 49.59215 | 8.51630 | 16422 ft | 365 kts | 186° |
| 2026-05-07 14:30 | 49.56676 | 8.51297 | 17176 ft | 368 kts | 186° |
| 2026-05-07 14:30 | 49.54150 | 8.50967 | 17906 ft | 371 kts | 187° |
| 2026-05-07 14:31 | 49.51565 | 8.50628 | 18597 ft | 375 kts | 187° |
| 2026-05-07 14:31 | 49.48958 | 8.50287 | 19238 ft | 378 kts | 187° |
| 2026-05-07 14:31 | 49.46325 | 8.49944 | 19881 ft | 381 kts | 187° |
| 2026-05-07 14:31 | 49.43674 | 8.49596 | 20522 ft | 384 kts | 187° |
| 2026-05-07 14:32 | 49.41001 | 8.49234 | 21186 ft | 386 kts | 187° |
| 2026-05-07 14:32 | 49.38318 | 8.48859 | 21832 ft | 389 kts | 187° |
| 2026-05-07 14:32 | 49.35608 | 8.48475 | 22469 ft | 392 kts | 188° |
| 2026-05-07 14:32 | 49.32920 | 8.48093 | 23074 ft | 395 kts | 188° |
| 2026-05-07 14:33 | 49.30169 | 8.47700 | 23661 ft | 399 kts | 188° |
| 2026-05-07 14:33 | 49.27396 | 8.47306 | 24154 ft | 402 kts | 187° |
| 2026-05-07 14:33 | 49.24603 | 8.46910 | 24644 ft | 404 kts | 187° |
| 2026-05-07 14:33 | 49.21793 | 8.46515 | 25125 ft | 407 kts | 187° |
| 2026-05-07 14:34 | 49.18966 | 8.46119 | 25611 ft | 409 kts | 188° |
| 2026-05-07 14:34 | 49.16118 | 8.45723 | 26094 ft | 412 kts | 188° |
| 2026-05-07 14:34 | 49.13255 | 8.45324 | 26564 ft | 414 kts | 188° |
| 2026-05-07 14:34 | 49.10413 | 8.44926 | 27022 ft | 417 kts | 188° |
| 2026-05-07 14:35 | 49.07515 | 8.44520 | 27480 ft | 420 kts | 187° |
| 2026-05-07 14:35 | 49.04594 | 8.44111 | 27934 ft | 423 kts | 187° |
| 2026-05-07 14:35 | 49.01656 | 8.43700 | 28386 ft | 426 kts | 187° |
| 2026-05-07 14:35 | 48.98695 | 8.43287 | 28822 ft | 428 kts | 187° |
| 2026-05-07 14:36 | 48.95717 | 8.42872 | 29267 ft | 431 kts | 187° |
| 2026-05-07 14:36 | 48.92721 | 8.42457 | 29698 ft | 434 kts | 187° |
| 2026-05-07 14:36 | 48.89707 | 8.42040 | 30112 ft | 436 kts | 187° |
| 2026-05-07 14:36 | 48.86715 | 8.41625 | 30444 ft | 439 kts | 187° |
| 2026-05-07 14:37 | 48.83666 | 8.41205 | 30765 ft | 442 kts | 187° |
| 2026-05-07 14:37 | 48.77510 | 8.40356 | 31047 ft | 445 kts | 187° |
| 2026-05-07 14:37 | 48.74433 | 8.39935 | 31050 ft | 444 kts | 187° |
| 2026-05-07 14:38 | 48.68280 | 8.39092 | 31048 ft | 444 kts | 187° |
| 2026-05-07 14:38 | 48.62176 | 8.38258 | 31047 ft | 444 kts | 187° |
| 2026-05-07 14:39 | 48.56027 | 8.37423 | 31046 ft | 444 kts | 187° |
| 2026-05-07 14:39 | 48.49880 | 8.36583 | 31041 ft | 443 kts | 187° |
| 2026-05-07 14:40 | 48.43741 | 8.35742 | 31038 ft | 443 kts | 187° |
| 2026-05-07 14:40 | 48.37600 | 8.34907 | 31042 ft | 443 kts | 187° |
| 2026-05-07 14:41 | 48.31500 | 8.34087 | 31043 ft | 443 kts | 187° |
| 2026-05-07 14:41 | 48.25368 | 8.33249 | 31038 ft | 442 kts | 187° |
| 2026-05-07 14:42 | 48.19237 | 8.32413 | 31038 ft | 442 kts | 187° |
| 2026-05-07 14:42 | 48.13076 | 8.32172 | 31027 ft | 444 kts | 181° |
| 2026-05-07 14:43 | 48.06931 | 8.32277 | 31037 ft | 444 kts | 182° |
| 2026-05-07 14:43 | 48.00753 | 8.32364 | 31038 ft | 444 kts | 182° |
| 2026-05-07 14:44 | 47.94569 | 8.32447 | 31038 ft | 444 kts | 182° |
| 2026-05-07 14:44 | 47.88388 | 8.32524 | 31036 ft | 444 kts | 182° |
| 2026-05-07 14:45 | 47.82244 | 8.32605 | 31033 ft | 444 kts | 182° |
| 2026-05-07 14:45 | 47.76062 | 8.32693 | 31032 ft | 444 kts | 182° |
| 2026-05-07 14:46 | 47.69875 | 8.32782 | 31022 ft | 444 kts | 182° |
| 2026-05-07 14:46 | 47.63691 | 8.32870 | 31024 ft | 444 kts | 182° |
| 2026-05-07 14:47 | 47.57507 | 8.32947 | 31018 ft | 445 kts | 182° |
| 2026-05-07 14:47 | 47.51320 | 8.33033 | 31019 ft | 445 kts | 182° |
| 2026-05-07 14:48 | 47.45169 | 8.33129 | 31016 ft | 446 kts | 182° |
| 2026-05-07 14:48 | 47.38965 | 8.33220 | 31019 ft | 445 kts | 182° |
| 2026-05-07 14:49 | 47.32776 | 8.33299 | 31021 ft | 445 kts | 182° |
| 2026-05-07 14:49 | 47.26584 | 8.33596 | 31019 ft | 447 kts | 179° |
| 2026-05-07 14:50 | 47.20427 | 8.34484 | 31021 ft | 448 kts | 176° |
| 2026-05-07 14:50 | 47.14233 | 8.35510 | 31024 ft | 448 kts | 177° |
| 2026-05-07 14:51 | 47.08026 | 8.36419 | 31012 ft | 448 kts | 178° |
| 2026-05-07 14:51 | 47.01813 | 8.37237 | 31030 ft | 449 kts | 179° |
| 2026-05-07 14:52 | 46.95630 | 8.38051 | 31030 ft | 449 kts | 178° |
| 2026-05-07 14:52 | 46.89407 | 8.38894 | 31029 ft | 449 kts | 178° |
| 2026-05-07 14:53 | 46.83179 | 8.39752 | 31030 ft | 450 kts | 179° |
| 2026-05-07 14:53 | 46.76941 | 8.40601 | 31027 ft | 450 kts | 179° |
| 2026-05-07 14:54 | 46.70749 | 8.41426 | 30976 ft | 448 kts | 179° |
| 2026-05-07 14:54 | 46.67672 | 8.41842 | 30452 ft | 441 kts | 179° |
| 2026-05-07 14:54 | 46.64638 | 8.42252 | 29835 ft | 435 kts | 180° |
| 2026-05-07 14:55 | 46.61649 | 8.42655 | 29170 ft | 428 kts | 179° |
| 2026-05-07 14:55 | 46.58697 | 8.43051 | 28522 ft | 424 kts | 179° |
| 2026-05-07 14:55 | 46.55772 | 8.43445 | 27892 ft | 420 kts | 179° |
| 2026-05-07 14:55 | 46.52872 | 8.43832 | 27271 ft | 417 kts | 179° |
| 2026-05-07 14:56 | 46.49999 | 8.44212 | 26658 ft | 413 kts | 178° |
| 2026-05-07 14:56 | 46.47147 | 8.44587 | 26068 ft | 410 kts | 178° |
| 2026-05-07 14:56 | 46.44319 | 8.44960 | 25492 ft | 406 kts | 178° |
| 2026-05-07 14:56 | 46.41552 | 8.45326 | 24931 ft | 404 kts | 178° |
| 2026-05-07 14:57 | 46.38760 | 8.45697 | 24416 ft | 401 kts | 177° |
| 2026-05-07 14:57 | 46.35998 | 8.46064 | 23941 ft | 397 kts | 177° |
| 2026-05-07 14:57 | 46.33258 | 8.46428 | 23451 ft | 394 kts | 177° |
| 2026-05-07 14:57 | 46.30542 | 8.46789 | 22891 ft | 391 kts | 177° |
| 2026-05-07 14:58 | 46.27843 | 8.47149 | 22344 ft | 388 kts | 177° |
| 2026-05-07 14:58 | 46.25161 | 8.47510 | 21791 ft | 386 kts | 177° |
| 2026-05-07 14:58 | 46.22493 | 8.47885 | 21263 ft | 384 kts | 176° |
| 2026-05-07 14:58 | 46.19846 | 8.48350 | 20748 ft | 384 kts | 170° |
| 2026-05-07 14:59 | 46.17364 | 8.49626 | 20239 ft | 384 kts | 158° |
| 2026-05-07 14:59 | 46.14939 | 8.51210 | 19744 ft | 381 kts | 157° |
| 2026-05-07 14:59 | 46.12532 | 8.52795 | 19249 ft | 379 kts | 157° |
| 2026-05-07 14:59 | 46.10144 | 8.54369 | 18768 ft | 377 kts | 157° |
| 2026-05-07 15:00 | 46.07770 | 8.55935 | 18287 ft | 374 kts | 157° |
| 2026-05-07 15:00 | 46.05428 | 8.57521 | 17746 ft | 371 kts | 156° |
| 2026-05-07 15:00 | 46.03111 | 8.59127 | 17205 ft | 368 kts | 156° |
| 2026-05-07 15:00 | 46.00813 | 8.60739 | 16682 ft | 366 kts | 156° |
| 2026-05-07 15:01 | 45.98528 | 8.62344 | 16165 ft | 364 kts | 156° |
| 2026-05-07 15:01 | 45.96291 | 8.63910 | 15660 ft | 362 kts | 156° |
| 2026-05-07 15:01 | 45.94032 | 8.65484 | 15168 ft | 360 kts | 156° |
| 2026-05-07 15:01 | 45.91782 | 8.67045 | 14678 ft | 358 kts | 156° |
| 2026-05-07 15:02 | 45.89545 | 8.68594 | 14190 ft | 356 kts | 156° |
| 2026-05-07 15:02 | 45.87324 | 8.70128 | 13709 ft | 354 kts | 156° |
| 2026-05-07 15:02 | 45.85118 | 8.71649 | 13165 ft | 347 kts | 156° |
| 2026-05-07 15:02 | 45.82982 | 8.73124 | 12741 ft | 335 kts | 156° |
| 2026-05-07 15:03 | 45.80920 | 8.74546 | 12355 ft | 323 kts | 156° |
| 2026-05-07 15:03 | 45.78927 | 8.75919 | 11977 ft | 313 kts | 156° |
| 2026-05-07 15:03 | 45.77018 | 8.77234 | 11598 ft | 305 kts | 156° |
| 2026-05-07 15:03 | 45.75125 | 8.78534 | 11224 ft | 298 kts | 156° |
| 2026-05-07 15:04 | 45.73278 | 8.79801 | 10853 ft | 291 kts | 155° |
| 2026-05-07 15:04 | 45.71477 | 8.81035 | 10484 ft | 284 kts | 155° |
| 2026-05-07 15:04 | 45.69711 | 8.82244 | 10119 ft | 280 kts | 155° |
| 2026-05-07 15:04 | 45.67949 | 8.83446 | 9749 ft | 280 kts | 155° |
| 2026-05-07 15:05 | 45.66188 | 8.84644 | 9351 ft | 280 kts | 155° |
| 2026-05-07 15:05 | 45.64432 | 8.85843 | 9008 ft | 277 kts | 155° |
| 2026-05-07 15:05 | 45.62726 | 8.87012 | 8967 ft | 268 kts | 155° |
| 2026-05-07 15:05 | 45.61007 | 8.87894 | 8974 ft | 266 kts | 169° |
| 2026-05-07 15:06 | 45.59187 | 8.88389 | 8976 ft | 266 kts | 170° |
| 2026-05-07 15:06 | 45.57368 | 8.88879 | 8867 ft | 268 kts | 170° |
| 2026-05-07 15:06 | 45.55548 | 8.89373 | 8544 ft | 265 kts | 170° |
| 2026-05-07 15:06 | 45.53747 | 8.89866 | 8209 ft | 262 kts | 170° |
| 2026-05-07 15:07 | 45.51964 | 8.90351 | 7884 ft | 259 kts | 170° |
| 2026-05-07 15:07 | 45.50199 | 8.90832 | 7544 ft | 257 kts | 169° |
| 2026-05-07 15:07 | 45.48447 | 8.91310 | 7181 ft | 256 kts | 169° |
| 2026-05-07 15:07 | 45.46722 | 8.91780 | 6819 ft | 255 kts | 169° |
| 2026-05-07 15:08 | 45.44982 | 8.92252 | 6451 ft | 254 kts | 169° |
| 2026-05-07 15:08 | 45.43247 | 8.92720 | 6072 ft | 253 kts | 169° |
| 2026-05-07 15:08 | 45.41521 | 8.93187 | 5703 ft | 252 kts | 169° |
| 2026-05-07 15:08 | 45.39786 | 8.93328 | 5322 ft | 250 kts | 189° |
| 2026-05-07 15:09 | 45.38178 | 8.92455 | 4939 ft | 249 kts | 214° |
| 2026-05-07 15:09 | 45.37004 | 8.90686 | 4578 ft | 247 kts | 240° |
| 2026-05-07 15:09 | 45.36495 | 8.88389 | 4284 ft | 243 kts | 265° |
| 2026-05-07 15:09 | 45.36580 | 8.86027 | 4080 ft | 235 kts | 275° |
| 2026-05-07 15:10 | 45.36721 | 8.83769 | 4027 ft | 222 kts | 275° |
| 2026-05-07 15:10 | 45.37019 | 8.81730 | 4018 ft | 209 kts | 296° |
| 2026-05-07 15:10 | 45.37944 | 8.80193 | 4025 ft | 206 kts | 326° |
| 2026-05-07 15:10 | 45.39282 | 8.79520 | 3816 ft | 205 kts | 353° |
| 2026-05-07 15:11 | 45.40698 | 8.79260 | 3593 ft | 205 kts | 353° |
| 2026-05-07 15:11 | 45.42109 | 8.79027 | 3370 ft | 204 kts | 352° |
| 2026-05-07 15:11 | 45.43503 | 8.78706 | 3125 ft | 202 kts | 350° |
| 2026-05-07 15:11 | 45.44866 | 8.78345 | 3016 ft | 196 kts | 349° |
| 2026-05-07 15:12 | 45.46189 | 8.77984 | 3002 ft | 189 kts | 349° |
| 2026-05-07 15:12 | 45.47438 | 8.77641 | 3034 ft | 184 kts | 349° |
| 2026-05-07 15:12 | 45.48681 | 8.77300 | 3007 ft | 181 kts | 349° |
| 2026-05-07 15:12 | 45.49908 | 8.76963 | 2950 ft | 176 kts | 349° |
| 2026-05-07 15:13 | 45.51092 | 8.76637 | 2785 ft | 171 kts | 349° |
| 2026-05-07 15:13 | 45.52255 | 8.76318 | 2581 ft | 169 kts | 349° |
| 2026-05-07 15:13 | 45.53398 | 8.76003 | 2367 ft | 165 kts | 349° |
| 2026-05-07 15:13 | 45.54503 | 8.75699 | 2152 ft | 158 kts | 349° |
| 2026-05-07 15:14 | 45.55532 | 8.75416 | 1951 ft | 144 kts | 349° |
| 2026-05-07 15:14 | 45.56485 | 8.75153 | 1761 ft | 139 kts | 349° |
| 2026-05-07 15:14 | 45.57426 | 8.74893 | 1578 ft | 137 kts | 349° |
| 2026-05-07 15:14 | 45.58362 | 8.74635 | 1385 ft | 137 kts | 348° |
| 2026-05-07 15:15 | 45.59294 | 8.74379 | 1205 ft | 136 kts | 348° |
| 2026-05-07 15:15 | 45.60228 | 8.74121 | 1021 ft | 137 kts | 348° |
| 2026-05-07 15:15 | 45.61163 | 8.73863 | 840 ft | 137 kts | 348° |
| 2026-05-07 15:15 | 45.62065 | 8.73615 | 739 ft | 119 kts | 349° |
| 2026-05-07 15:16 | 45.62578 | 8.73471 | 742 ft | 41 kts | 348° |
| 2026-05-07 15:16 | 45.62856 | 8.73397 | 738 ft | 40 kts | 349° |
| 2026-05-07 15:16 | 45.63110 | 8.73293 | 738 ft | 36 kts | 329° |
| 2026-05-07 15:16 | 45.63250 | 8.73091 | 741 ft | 22 kts | 303° |
| 2026-05-07 15:17 | 45.63327 | 8.72922 | 741 ft | 20 kts | 302° |
| 2026-05-07 15:17 | 45.63392 | 8.72769 | 741 ft | 16 kts | 283° |
| 2026-05-07 15:17 | 45.63349 | 8.72634 | 741 ft | 16 kts | 214° |
| 2026-05-07 15:17 | 45.63252 | 8.72541 | 741 ft | 17 kts | 213° |
| 2026-05-07 15:18 | 45.63150 | 8.72443 | 741 ft | 18 kts | 215° |
| 2026-05-07 15:18 | 45.63054 | 8.72334 | 743 ft | 18 kts | 234° |
| 2026-05-07 15:18 | 45.63019 | 8.72160 | 742 ft | 19 kts | 259° |
| 2026-05-07 15:18 | 45.62962 | 8.72055 | 741 ft | 14 kts | 171° |
| 2026-05-07 15:19 | 45.62860 | 8.72084 | 741 ft | 16 kts | 169° |
| 2026-05-07 15:19 | 45.62754 | 8.72113 | 741 ft | 13 kts | 169° |
| 2026-05-07 15:19 | 45.62681 | 8.72066 | 741 ft | 14 kts | 255° |
| 2026-05-07 15:19 | 45.62666 | 8.71952 | 739 ft | 12 kts | 257° |
| 2026-05-07 15:20 | 45.62637 | 8.71852 | 741 ft | 8 kts | 217° |
| 2026-05-07 15:20 | 45.62590 | 8.71802 | 740 ft | 9 kts | 223° |
| 2026-05-07 15:20 | 45.62558 | 8.71743 | 741 ft | 5 kts | 231° |
| 2026-05-07 15:20 | 45.62550 | 8.71729 | 741 ft | 0 kts | 231° |
| 2026-05-07 15:21 | 45.62549 | 8.71728 | 741 ft | 0 kts | 231° |